Time;durP1;ratioP1;P1;durP2;ratioP2;P2;SDS_P1;SDS_P2;PMS_P1;PMS_P2;Temp;Humidity;BMP_temperature;BMP_pressure;BME280_temperature;BME280_humidity;BME280_pressure;Samples;Min_cycle;Max_cycle;Signal;HPM_P1;HPM_P2
2021/05/10 00:00:37;;;;;;;4.07;2.10;;;16.70;94.60;;;;;;4969781;28;20494;-70
2021/05/10 00:03:03;;;;;;;2.30;2.00;;;16.50;95.30;;;;;;4969721;28;20475;-70
2021/05/10 00:05:30;;;;;;;2.47;1.93;;;16.40;95.50;;;;;;4967579;28;20477;-70
2021/05/10 00:07:57;;;;;;;2.30;2.10;;;16.30;95.80;;;;;;4967485;28;20487;-70
2021/05/10 00:10:23;;;;;;;2.20;1.80;;;16.20;95.70;;;;;;4999866;22;20856;-70
2021/05/10 00:12:49;;;;;;;4.00;2.20;;;16.20;93.90;;;;;;5009054;28;20503;-70
2021/05/10 00:15:16;;;;;;;1.90;1.80;;;16.30;93.20;;;;;;5008454;28;20465;-70
2021/05/10 00:17:43;;;;;;;2.13;1.87;;;16.50;92.20;;;;;;5007623;28;20515;-70
2021/05/10 00:20:10;;;;;;;3.70;2.40;;;16.70;91.30;;;;;;5007933;28;20511;-70
2021/05/10 00:22:36;;;;;;;2.30;2.10;;;16.90;91.20;;;;;;5009190;28;20531;-70
2021/05/10 00:25:04;;;;;;;2.30;2.10;;;17.10;90.80;;;;;;5009230;28;20468;-70
2021/05/10 00:27:30;;;;;;;2.33;2.10;;;17.10;90.10;;;;;;5009017;28;20840;-70
2021/05/10 00:29:56;;;;;;;2.10;1.80;;;17.20;90.00;;;;;;5008362;28;20493;-70
2021/05/10 00:32:23;;;;;;;2.13;1.83;;;17.30;89.40;;;;;;5009296;28;20472;-70
2021/05/10 00:34:49;;;;;;;2.97;2.00;;;17.30;89.20;;;;;;5009039;28;20468;-70
2021/05/10 00:37:16;;;;;;;1.80;1.70;;;17.40;88.60;;;;;;5008840;28;20546;-70
2021/05/10 00:39:42;;;;;;;2.30;1.67;;;17.40;89.20;;;;;;5008674;28;20862;-70
2021/05/10 00:42:09;;;;;;;2.63;1.93;;;17.30;89.80;;;;;;5008873;28;20838;-70
2021/05/10 00:44:36;;;;;;;2.53;1.90;;;17.30;90.00;;;;;;5009109;28;20465;-70
2021/05/10 00:47:02;;;;;;;1.87;1.63;;;17.20;90.50;;;;;;5009036;28;20882;-70
2021/05/10 00:49:28;;;;;;;2.43;1.73;;;17.10;91.10;;;;;;5008481;28;20493;-70
2021/05/10 00:51:54;;;;;;;3.33;2.97;;;17.00;92.50;;;;;;5009051;28;20472;-70
2021/05/10 00:54:21;;;;;;;2.10;1.80;;;16.90;93.60;;;;;;5009040;28;20461;-70
2021/05/10 00:56:47;;;;;;;2.80;2.23;;;16.70;93.70;;;;;;5008992;28;20484;-70
2021/05/10 00:59:14;;;;;;;3.67;2.00;;;16.40;94.40;;;;;;5008656;28;20493;-70
2021/05/10 01:01:41;;;;;;;2.60;1.87;;;16.20;94.60;;;;;;5009119;28;20476;-70
2021/05/10 01:04:07;;;;;;;3.23;2.30;;;16.00;95.00;;;;;;5008957;28;20472;-70
2021/05/10 01:06:33;;;;;;;2.90;2.30;;;15.90;95.20;;;;;;5008972;28;20466;-70
2021/05/10 01:09:00;;;;;;;2.90;1.93;;;15.70;95.70;;;;;;5008073;28;20493;-69
2021/05/10 01:11:28;;;;;;;2.30;2.10;;;15.50;95.90;;;;;;5008673;28;20836;-69
2021/05/10 01:13:54;;;;;;;2.27;2.07;;;15.40;96.10;;;;;;5008591;28;20961;-69
2021/05/10 01:16:21;;;;;;;2.10;1.70;;;15.30;96.40;;;;;;5012271;28;20519;-69
2021/05/10 01:18:47;;;;;;;2.57;2.00;;;15.20;96.40;;;;;;5011764;28;20465;-69
2021/05/10 01:21:15;;;;;;;3.53;2.00;;;15.20;96.40;;;;;;5012282;28;21204;-69
2021/05/10 01:23:44;;;;;;;2.03;1.93;;;15.20;96.30;;;;;;5012450;28;20961;-69
2021/05/10 01:26:11;;;;;;;4.23;2.10;;;15.10;96.70;;;;;;5012244;28;20671;-69
2021/05/10 01:28:37;;;;;;;2.20;2.00;;;14.90;96.90;;;;;;5011741;28;20461;-70
2021/05/10 01:31:04;;;;;;;2.40;2.10;;;14.70;97.20;;;;;;5012267;28;20900;-69
2021/05/10 01:33:30;;;;;;;2.50;2.30;;;14.60;97.60;;;;;;5012230;28;20832;-69
2021/05/10 01:35:57;;;;;;;3.53;2.40;;;14.40;98.20;;;;;;5011579;28;20464;-70
2021/05/10 01:38:23;;;;;;;2.20;2.00;;;14.30;98.80;;;;;;5011588;28;21052;-70
2021/05/10 01:40:50;;;;;;;4.60;2.63;;;14.20;99.20;;;;;;5011793;28;20476;-70
2021/05/10 01:43:17;;;;;;;2.50;2.27;;;14.10;99.30;;;;;;5012055;28;20465;-70
2021/05/10 01:45:44;;;;;;;2.73;2.20;;;14.00;99.50;;;;;;5011792;28;20498;-69
2021/05/10 01:48:12;;;;;;;2.80;2.33;;;13.90;99.80;;;;;;5011370;28;20464;-69
2021/05/10 01:50:41;;;;;;;2.17;1.97;;;13.90;99.90;;;;;;5012006;28;20485;-70
2021/05/10 01:53:08;;;;;;;2.40;2.20;;;13.90;99.90;;;;;;5011515;28;20472;-69
2021/05/10 01:55:35;;;;;;;2.27;2.10;;;13.90;99.90;;;;;;5011833;28;20957;-70
2021/05/10 01:58:03;;;;;;;2.20;2.00;;;13.70;99.90;;;;;;5010761;28;20816;-69
2021/05/10 02:00:31;;;;;;;2.43;2.00;;;13.60;99.90;;;;;;5011888;28;20488;-69
2021/05/10 02:03:01;;;;;;;6.50;2.70;;;13.60;99.90;;;;;;5011441;28;20461;-69
2021/05/10 02:05:29;;;;;;;2.70;2.30;;;13.50;99.90;;;;;;5011775;28;20461;-69
2021/05/10 02:07:57;;;;;;;2.13;1.93;;;13.50;99.90;;;;;;5010780;28;20461;-70
2021/05/10 02:10:25;;;;;;;2.30;2.10;;;13.50;99.90;;;;;;5011400;28;20500;-70
2021/05/10 02:12:55;;;;;;;3.07;2.00;;;13.40;99.90;;;;;;5011408;28;20465;-70
2021/05/10 02:15:24;;;;;;;2.27;2.00;;;13.40;99.90;;;;;;5011331;28;20484;-70
2021/05/10 02:17:50;;;;;;;2.67;2.47;;;13.40;99.90;;;;;;5010780;28;20555;-70
2021/05/10 02:20:18;;;;;;;3.60;2.37;;;13.40;99.90;;;;;;5011284;28;20489;-70
2021/05/10 02:22:55;;;;;;;3.00;2.80;;;13.40;99.90;;;;;;5011442;28;20461;-70
2021/05/10 02:25:24;;;;;;;2.60;2.40;;;13.40;99.90;;;;;;5011110;28;20941;-70
2021/05/10 02:27:51;;;;;;;2.53;2.33;;;13.30;99.90;;;;;;5010331;28;20461;-70
2021/05/10 02:30:19;;;;;;;3.40;2.47;;;13.30;99.90;;;;;;5011197;28;21072;-70
2021/05/10 02:32:47;;;;;;;2.47;1.90;;;13.40;99.90;;;;;;5011129;28;20472;-70
2021/05/10 02:35:14;;;;;;;8.40;3.13;;;13.30;99.90;;;;;;5011231;28;20531;-70
2021/05/10 02:37:41;;;;;;;2.60;2.40;;;13.20;99.90;;;;;;5010411;28;20473;-70
2021/05/10 02:40:08;;;;;;;2.90;2.33;;;13.20;99.90;;;;;;5010718;28;20503;-70
2021/05/10 02:42:34;;;;;;;2.80;2.50;;;13.20;99.90;;;;;;5011007;28;21031;-70
2021/05/10 02:45:01;;;;;;;2.90;2.60;;;13.20;99.90;;;;;;5010605;28;20457;-70
2021/05/10 02:47:27;;;;;;;5.23;2.20;;;13.20;99.90;;;;;;5011056;28;20964;-70
2021/05/10 02:49:55;;;;;;;4.80;3.00;;;13.20;99.90;;;;;;5009908;28;20561;-69
2021/05/10 02:52:22;;;;;;;3.10;2.53;;;13.10;99.90;;;;;;5010904;28;20864;-70
2021/05/10 02:54:48;;;;;;;2.60;2.20;;;13.10;99.90;;;;;;5010553;28;20825;-70
2021/05/10 02:57:15;;;;;;;2.83;2.53;;;13.10;99.90;;;;;;5010591;28;21035;-70
2021/05/10 02:59:41;;;;;;;4.10;3.40;;;13.00;99.90;;;;;;5010072;28;20496;-70
2021/05/10 03:02:07;;;;;;;4.40;3.60;;;13.00;99.90;;;;;;5010393;28;20538;-70
2021/05/10 03:04:33;;;;;;;4.00;3.10;;;13.00;99.90;;;;;;5010634;28;20524;-69
2021/05/10 03:07:00;;;;;;;2.80;2.37;;;12.90;99.90;;;;;;5010246;28;20466;-69
2021/05/10 03:09:27;;;;;;;3.60;2.50;;;12.90;99.90;;;;;;5009979;28;20481;-70
2021/05/10 03:11:53;;;;;;;3.07;2.20;;;12.80;99.90;;;;;;5010016;28;20468;-70
2021/05/10 03:14:19;;;;;;;2.23;2.03;;;12.70;99.90;;;;;;5010761;28;20461;-69
2021/05/10 03:16:45;;;;;;;4.17;3.00;;;12.70;99.90;;;;;;5010481;28;20584;-69
2021/05/10 03:19:12;;;;;;;3.63;2.60;;;12.60;99.90;;;;;;5009283;28;20492;-69
2021/05/10 03:21:38;;;;;;;5.70;2.50;;;12.60;99.90;;;;;;5010260;28;20962;-69
2021/05/10 03:24:07;;;;;;;2.97;2.70;;;12.60;99.90;;;;;;5010047;28;20469;-69
2021/05/10 03:26:34;;;;;;;2.90;2.30;;;12.60;99.90;;;;;;5010231;28;20842;-69
2021/05/10 03:29:01;;;;;;;4.17;2.23;;;12.70;99.90;;;;;;5009290;28;20461;-70
2021/05/10 03:31:27;;;;;;;4.30;2.67;;;12.70;99.90;;;;;;5009796;28;20461;-69
2021/05/10 03:33:53;;;;;;;2.67;2.47;;;12.70;99.90;;;;;;5008892;28;20977;-70
2021/05/10 03:36:20;;;;;;;2.90;2.40;;;12.70;99.90;;;;;;5008786;28;20465;-70
2021/05/10 03:38:46;;;;;;;2.30;2.10;;;12.70;99.90;;;;;;5006865;28;20503;-69
2021/05/10 03:41:13;;;;;;;3.40;2.40;;;12.80;99.90;;;;;;5009099;28;20480;-69
2021/05/10 03:43:39;;;;;;;2.43;2.23;;;12.80;99.90;;;;;;5009130;28;20454;-70
2021/05/10 03:46:06;;;;;;;2.60;2.37;;;12.90;99.90;;;;;;5008360;28;20457;-69
2021/05/10 03:48:32;;;;;;;4.33;2.37;;;13.00;99.90;;;;;;5008875;28;20465;-69
2021/05/10 03:50:58;;;;;;;2.97;2.10;;;13.00;99.90;;;;;;5009272;28;20535;-69
2021/05/10 03:53:25;;;;;;;4.10;2.47;;;13.10;99.90;;;;;;5006145;28;20488;-70
2021/05/10 03:55:51;;;;;;;2.60;2.40;;;13.20;99.90;;;;;;5009180;28;20457;-69
2021/05/10 03:58:19;;;;;;;2.33;2.13;;;13.20;99.90;;;;;;5008594;28;20473;-70
2021/05/10 04:00:45;;;;;;;2.97;2.10;;;13.40;99.90;;;;;;5009820;28;20746;-70
2021/05/10 04:03:13;;;;;;;3.63;2.40;;;13.50;99.90;;;;;;5008396;28;20460;-70
2021/05/10 04:06:02;;;;;;;3.60;2.43;;;13.80;99.90;;;;;;5006572;28;20465;-69
2021/05/10 04:11:33;;;;;;;3.90;1.97;;;14.40;98.40;;;;;;4999980;28;20505;-70
2021/05/10 04:14:01;;;;;;;2.50;2.10;;;14.70;96.60;;;;;;5005318;28;20458;-69
2021/05/10 04:16:28;;;;;;;2.90;2.03;;;15.10;95.70;;;;;;5006663;28;20251;-70
2021/05/10 04:18:54;;;;;;;3.20;2.23;;;15.50;94.10;;;;;;5005653;28;20488;-69
2021/05/10 04:21:20;;;;;;;2.10;1.90;;;15.90;93.20;;;;;;5009059;28;20484;-70
2021/05/10 04:23:46;;;;;;;3.10;1.90;;;16.20;93.10;;;;;;5009085;28;20465;-69
2021/05/10 04:26:13;;;;;;;5.67;1.87;;;16.40;92.40;;;;;;5010106;28;20463;-72
2021/05/10 04:28:39;;;;;;;1.87;1.70;;;16.50;92.60;;;;;;5009535;28;20469;-69
2021/05/10 04:31:06;;;;;;;3.70;1.90;;;16.80;91.70;;;;;;5008859;28;20480;-69
2021/05/10 04:33:33;;;;;;;2.17;1.70;;;16.80;91.40;;;;;;5008796;28;20474;-69
2021/05/10 04:36:01;;;;;;;2.40;1.80;;;17.00;90.90;;;;;;5008802;28;20469;-69
2021/05/10 04:38:27;;;;;;;5.63;1.70;;;17.10;90.50;;;;;;5007999;28;20489;-69
2021/05/10 04:40:55;;;;;;;2.50;1.87;;;17.20;90.40;;;;;;5008603;28;20493;-69
2021/05/10 04:43:21;;;;;;;2.10;1.80;;;17.20;90.70;;;;;;5008728;28;20464;-69
2021/05/10 04:45:48;;;;;;;4.73;2.47;;;17.20;90.90;;;;;;5008938;28;20478;-69
2021/05/10 04:48:15;;;;;;;1.60;1.50;;;17.30;91.50;;;;;;5008355;28;20457;-69
2021/05/10 04:50:41;;;;;;;3.63;1.87;;;17.20;92.20;;;;;;5012671;28;20481;-68
2021/05/10 04:53:10;;;;;;;2.70;2.03;;;17.20;93.10;;;;;;5012633;28;20985;-69
2021/05/10 04:55:37;;;;;;;2.20;1.73;;;17.10;91.60;;;;;;5012854;28;20890;-69
2021/05/10 04:58:03;;;;;;;1.70;1.60;;;17.20;90.90;;;;;;5012014;28;20887;-69
2021/05/10 05:00:29;;;;;;;3.33;1.80;;;17.40;90.50;;;;;;5012498;28;20488;-69
2021/05/10 05:02:56;;;;;;;1.80;1.50;;;17.60;90.70;;;;;;5012734;28;20472;-69
2021/05/10 05:05:23;;;;;;;3.17;1.47;;;17.70;90.00;;;;;;5012599;28;20465;-69
2021/05/10 05:07:49;;;;;;;2.47;1.90;;;17.80;89.90;;;;;;5011735;28;20464;-69
2021/05/10 05:10:15;;;;;;;2.30;1.87;;;17.90;89.90;;;;;;5012413;28;20504;-69
2021/05/10 05:12:42;;;;;;;4.13;1.97;;;18.00;90.00;;;;;;5012332;28;20485;-69
2021/05/10 05:15:10;;;;;;;2.70;2.00;;;18.00;90.60;;;;;;5012466;28;20468;-69
2021/05/10 05:17:37;;;;;;;1.97;1.70;;;18.10;91.30;;;;;;5011891;28;20516;-69
2021/05/10 05:20:04;;;;;;;2.87;2.20;;;18.10;93.10;;;;;;5011702;28;20493;-69
2021/05/10 05:22:31;;;;;;;3.20;2.03;;;18.10;94.90;;;;;;5011902;28;20995;-69
2021/05/10 05:24:57;;;;;;;2.43;1.83;;;17.90;93.80;;;;;;5012021;28;20468;-69
2021/05/10 05:27:24;;;;;;;5.10;2.33;;;18.00;95.00;;;;;;5012112;28;20488;-69
2021/05/10 05:29:50;;;;;;;2.17;1.97;;;17.90;96.50;;;;;;5011055;28;20527;-69
2021/05/10 05:32:16;;;;;;;2.47;2.13;;;17.90;96.90;;;;;;5012023;28;20465;-69
2021/05/10 05:34:43;;;;;;;3.90;2.20;;;17.80;97.50;;;;;;5011441;28;21245;-69
2021/05/10 05:37:09;;;;;;;2.33;2.03;;;17.70;97.20;;;;;;5011724;28;20471;-69
2021/05/10 05:39:36;;;;;;;3.87;2.00;;;17.70;98.70;;;;;;5010919;28;20500;-69
2021/05/10 05:42:02;;;;;;;3.20;2.40;;;17.60;98.80;;;;;;5011901;28;20468;-69
2021/05/10 05:44:32;;;;;;;2.80;2.10;;;17.60;99.40;;;;;;5011860;28;20949;-70
2021/05/10 05:47:01;;;;;;;3.70;2.20;;;17.70;99.40;;;;;;5011548;28;20465;-69
2021/05/10 05:49:27;;;;;;;3.03;2.23;;;17.60;99.90;;;;;;5011081;28;21235;-69
2021/05/10 05:51:53;;;;;;;3.70;2.20;;;17.70;99.90;;;;;;5011087;28;20526;-70
2021/05/10 05:54:20;;;;;;;3.80;2.13;;;17.60;99.60;;;;;;5011547;28;20460;-69
2021/05/10 05:56:47;;;;;;;3.57;2.27;;;17.70;96.60;;;;;;5011213;28;20461;-69
2021/05/10 05:59:13;;;;;;;3.60;1.80;;;17.80;99.10;;;;;;5010885;28;20493;-69
2021/05/10 06:01:39;;;;;;;2.50;1.80;;;17.80;97.50;;;;;;5009911;28;20949;-69
2021/05/10 06:04:06;;;;;;;3.83;1.83;;;17.90;96.60;;;;;;5010721;28;20462;-69
2021/05/10 06:06:32;;;;;;;2.00;1.90;;;18.00;97.60;;;;;;5010974;28;20456;-69
2021/05/10 06:08:58;;;;;;;2.67;2.20;;;18.10;95.60;;;;;;5009948;28;20828;-69
2021/05/10 06:11:25;;;;;;;3.20;2.13;;;18.10;94.90;;;;;;5063457;23;20509;-70
2021/05/10 06:13:52;;;;;;;2.20;1.90;;;18.20;95.90;;;;;;4991267;28;20458;-70
2021/05/10 06:16:18;;;;;;;3.80;2.00;;;18.30;94.20;;;;;;4991859;28;20826;-70
2021/05/10 06:18:45;;;;;;;2.80;1.97;;;18.40;94.30;;;;;;4991218;28;20481;-70
2021/05/10 06:21:11;;;;;;;2.00;1.80;;;18.50;94.00;;;;;;4991933;28;20478;-70
2021/05/10 06:23:39;;;;;;;3.33;2.03;;;18.60;93.60;;;;;;4990257;28;20607;-70
2021/05/10 06:26:06;;;;;;;2.60;1.73;;;18.70;93.90;;;;;;4990104;28;20503;-70
2021/05/10 06:28:33;;;;;;;3.47;2.10;;;18.70;95.90;;;;;;4998998;28;20461;-71
2021/05/10 06:31:00;;;;;;;5.40;2.33;;;18.80;96.20;;;;;;5002083;28;21072;-71
2021/05/10 06:33:26;;;;;;;2.03;1.83;;;18.90;93.70;;;;;;5010824;28;20876;-70
2021/05/10 06:35:53;;;;;;;2.73;1.70;;;19.00;92.60;;;;;;5011737;28;20523;-70
2021/05/10 06:38:19;;;;;;;1.70;1.60;;;19.10;93.20;;;;;;5011336;28;20972;-71
2021/05/10 06:40:46;;;;;;;1.97;1.80;;;19.20;93.30;;;;;;5012276;28;20908;-69
2021/05/10 06:43:12;;;;;;;2.93;1.70;;;19.40;92.40;;;;;;5011261;28;20503;-69
2021/05/10 06:45:39;;;;;;;1.70;1.50;;;19.50;94.10;;;;;;5010577;28;20469;-69
2021/05/10 06:48:06;;;;;;;1.83;1.73;;;19.60;94.20;;;;;;5009834;28;20461;-71
2021/05/10 06:50:32;;;;;;;2.53;1.80;;;19.70;94.00;;;;;;5010514;28;20477;-69
2021/05/10 06:52:58;;;;;;;3.63;2.20;;;19.70;93.60;;;;;;4993031;28;20470;-70
2021/05/10 06:55:25;;;;;;;2.20;1.80;;;19.80;93.90;;;;;;4990912;28;20462;-69
2021/05/10 06:57:51;;;;;;;2.60;1.73;;;19.90;93.70;;;;;;4990089;28;20462;-70
2021/05/10 07:00:18;;;;;;;1.90;1.70;;;19.90;93.50;;;;;;4992141;28;20497;-69
2021/05/10 07:02:44;;;;;;;2.60;2.33;;;20.00;93.00;;;;;;5010370;28;20474;-69
2021/05/10 07:05:12;;;;;;;3.20;2.10;;;20.00;93.30;;;;;;5010866;28;20461;-71
2021/05/10 07:07:38;;;;;;;2.77;2.00;;;20.10;92.70;;;;;;5010639;28;20527;-71
2021/05/10 07:10:05;;;;;;;3.17;2.20;;;20.20;92.50;;;;;;5010634;28;20485;-70
2021/05/10 07:12:31;;;;;;;2.63;2.33;;;20.30;92.70;;;;;;5009458;28;20473;-71
2021/05/10 07:14:58;;;;;;;3.40;2.00;;;20.40;91.50;;;;;;5010467;28;20894;-71
2021/05/10 07:17:24;;;;;;;4.00;2.40;;;20.50;90.60;;;;;;5010512;28;20825;-70
2021/05/10 07:19:50;;;;;;;1.73;1.60;;;20.50;90.60;;;;;;5009856;28;20493;-70
2021/05/10 07:22:17;;;;;;;3.30;2.13;;;20.60;90.70;;;;;;5010559;28;20465;-70
2021/05/10 07:24:44;;;;;;;6.03;2.10;;;20.80;91.50;;;;;;5009967;28;20461;-70
2021/05/10 07:27:10;;;;;;;3.67;2.23;;;21.00;91.30;;;;;;5010722;28;20461;-71
2021/05/10 07:29:37;;;;;;;2.40;1.90;;;21.20;91.30;;;;;;5003733;28;21005;-69
2021/05/10 07:32:03;;;;;;;3.03;2.00;;;21.40;91.10;;;;;;4990371;28;20454;-71
2021/05/10 07:34:37;;;;;;;3.47;2.00;;;21.50;91.00;;;;;;5106007;27;20530;-68
2021/05/10 07:37:03;;;;;;;2.87;2.47;;;21.50;91.10;;;;;;5106472;28;21019;-70
2021/05/10 07:39:29;;;;;;;2.90;2.10;;;21.60;91.20;;;;;;5102001;28;20486;-68
2021/05/10 07:41:55;;;;;;;2.13;1.90;;;21.60;91.70;;;;;;5076658;28;20466;-70
2021/05/10 07:44:22;;;;;;;1.93;1.80;;;21.70;91.60;;;;;;5068298;28;20463;-69
2021/05/10 07:46:48;;;;;;;3.53;2.27;;;21.90;91.60;;;;;;5084445;28;20454;-68
2021/05/10 07:49:14;;;;;;;8.13;2.37;;;22.10;92.00;;;;;;5084667;28;20555;-70
2021/05/10 07:51:41;;;;;;;6.70;3.23;;;22.40;91.40;;;;;;5084819;28;20980;-69
2021/05/10 07:54:07;;;;;;;4.17;2.30;;;22.50;91.40;;;;;;5084434;28;20478;-68
2021/05/10 07:56:33;;;;;;;2.50;2.13;;;22.50;90.90;;;;;;5084935;28;21014;-69
2021/05/10 07:59:01;;;;;;;2.67;2.23;;;22.60;91.40;;;;;;5083893;28;20734;-69
2021/05/10 08:01:27;;;;;;;3.10;2.23;;;22.40;92.10;;;;;;5083001;28;20475;-68
2021/05/10 08:03:54;;;;;;;3.03;2.20;;;22.30;92.30;;;;;;5085055;28;20458;-68
2021/05/10 08:06:20;;;;;;;4.00;2.07;;;22.00;91.90;;;;;;5085732;28;20469;-69
2021/05/10 08:08:47;;;;;;;3.00;1.80;;;21.90;92.50;;;;;;5084878;28;20461;-68
2021/05/10 08:11:13;;;;;;;3.30;2.10;;;21.80;93.40;;;;;;5085169;28;20526;-69
2021/05/10 08:13:40;;;;;;;2.90;1.90;;;21.90;93.40;;;;;;5085294;28;20482;-69
2021/05/10 08:16:06;;;;;;;3.60;2.50;;;22.20;93.80;;;;;;5085525;28;20578;-69
2021/05/10 08:18:32;;;;;;;3.23;2.10;;;22.50;94.10;;;;;;5085051;28;21002;-69
2021/05/10 08:20:58;;;;;;;3.37;2.50;;;22.80;92.80;;;;;;5084587;28;20485;-69
2021/05/10 08:23:25;;;;;;;3.43;2.97;;;23.10;93.10;;;;;;5085961;28;20458;-69
2021/05/10 08:25:53;;;;;;;4.63;2.10;;;23.50;92.60;;;;;;5085539;28;20822;-68
2021/05/10 08:28:19;;;;;;;3.30;2.17;;;23.50;92.30;;;;;;5084673;28;20458;-69
2021/05/10 08:30:45;;;;;;;3.77;2.30;;;23.50;92.60;;;;;;5084849;28;20486;-69
2021/05/10 08:33:11;;;;;;;3.50;2.20;;;23.40;92.00;;;;;;5085000;28;21064;-68
2021/05/10 08:35:38;;;;;;;4.30;2.10;;;23.30;92.30;;;;;;5085303;28;20465;-69
2021/05/10 08:38:04;;;;;;;2.90;2.00;;;23.10;92.60;;;;;;5084403;28;20465;-67
2021/05/10 08:40:31;;;;;;;4.00;2.40;;;22.90;92.20;;;;;;5085171;28;20485;-67
2021/05/10 08:42:59;;;;;;;2.63;2.27;;;22.80;93.10;;;;;;5084702;28;20454;-69
2021/05/10 08:45:25;;;;;;;3.10;2.50;;;22.70;92.90;;;;;;5074614;28;20462;-68
2021/05/10 08:47:52;;;;;;;2.83;1.97;;;22.60;94.00;;;;;;5070621;28;20458;-69
2021/05/10 08:50:18;;;;;;;3.23;2.20;;;22.70;94.20;;;;;;5068901;28;20485;-69
2021/05/10 08:52:45;;;;;;;4.20;2.30;;;22.90;94.00;;;;;;5070055;28;20479;-69
2021/05/10 08:55:16;;;;;;;3.40;2.37;;;23.10;93.40;;;;;;5072018;28;20508;-71
2021/05/10 08:57:43;;;;;;;5.23;2.43;;;23.20;93.60;;;;;;5071539;28;20815;-68
2021/05/10 09:00:13;;;;;;;4.30;1.90;;;23.20;93.20;;;;;;5071323;28;20490;-68
2021/05/10 09:02:40;;;;;;;3.20;2.30;;;23.10;92.80;;;;;;5071018;28;20605;-68
2021/05/10 09:05:11;;;;;;;5.93;2.60;;;22.90;92.50;;;;;;5065732;28;20988;-68
2021/05/10 09:07:37;;;;;;;5.03;2.30;;;22.70;92.90;;;;;;5067442;28;20471;-68
2021/05/10 09:10:06;;;;;;;3.07;2.63;;;22.80;93.30;;;;;;5067892;28;21013;-68
2021/05/10 09:12:44;;;;;;;2.83;2.50;;;22.90;93.60;;;;;;5067825;28;20469;-67
2021/05/10 09:15:24;;;;;;;2.73;2.53;;;22.90;93.10;;;;;;5068726;28;21258;-69
2021/05/10 09:17:52;;;;;;;2.70;2.40;;;22.90;93.80;;;;;;5057298;28;20459;-68
2021/05/10 09:20:21;;;;;;;3.47;2.30;;;22.90;93.30;;;;;;5067774;28;20483;-68
2021/05/10 09:22:49;;;;;;;4.83;2.60;;;23.10;93.90;;;;;;5068178;28;20466;-68
2021/05/10 09:25:16;;;;;;;2.93;2.63;;;23.20;94.00;;;;;;5067720;28;20989;-67
2021/05/10 09:27:43;;;;;;;5.10;3.27;;;23.30;93.60;;;;;;5067474;28;20464;-67
2021/05/10 09:30:19;;;;;;;3.77;2.80;;;23.50;93.70;;;;;;5068481;28;20535;-69
2021/05/10 09:32:49;;;;;;;3.33;2.60;;;23.70;93.60;;;;;;5046960;28;20489;-68
2021/05/10 09:35:45;;;;;;;3.50;2.23;;;24.00;92.80;;;;;;5048208;28;20466;-69
2021/05/10 09:38:12;;;;;;;4.60;2.57;;;24.20;92.90;;;;;;5047455;28;20467;-68
2021/05/10 09:40:44;;;;;;;2.83;2.10;;;24.30;92.40;;;;;;5059239;28;20472;-67
2021/05/10 09:43:15;;;;;;;2.63;2.43;;;24.60;93.10;;;;;;5056607;28;20457;-69
2021/05/10 09:45:45;;;;;;;4.87;2.70;;;24.70;92.30;;;;;;5063305;28;20465;-67
2021/05/10 09:48:16;;;;;;;2.70;2.23;;;24.90;92.20;;;;;;5060348;28;20485;-68
2021/05/10 09:50:44;;;;;;;4.20;2.27;;;25.00;91.80;;;;;;5066026;28;20514;-67
2021/05/10 09:53:16;;;;;;;8.30;2.73;;;25.40;92.90;;;;;;5065764;28;20497;-67
2021/05/10 09:55:52;;;;;;;4.50;2.70;;;25.60;92.00;;;;;;5067137;28;21034;-67
2021/05/10 09:58:22;;;;;;;4.03;2.33;;;25.60;91.80;;;;;;5065532;28;20684;-67
2021/05/10 10:00:57;;;;;;;3.50;2.10;;;25.60;90.70;;;;;;5057259;28;21031;-67
2021/05/10 10:03:35;;;;;;;3.73;2.47;;;25.50;91.00;;;;;;5062111;28;20454;-67
2021/05/10 10:06:03;;;;;;;3.80;1.63;;;25.50;91.40;;;;;;5065728;28;20458;-67
2021/05/10 10:08:31;;;;;;;3.60;1.87;;;25.60;90.90;;;;;;5064270;28;21034;-68
2021/05/10 10:10:59;;;;;;;3.00;2.20;;;25.50;91.40;;;;;;5057200;28;20474;-66
2021/05/10 10:13:26;;;;;;;2.60;2.17;;;25.10;90.50;;;;;;5066385;28;20585;-67
2021/05/10 10:15:56;;;;;;;2.13;1.67;;;24.70;90.60;;;;;;5052692;28;20570;-68
2021/05/10 10:18:23;;;;;;;4.50;2.03;;;24.40;91.50;;;;;;5044744;28;20558;-66
2021/05/10 10:20:52;;;;;;;3.50;2.10;;;24.50;91.50;;;;;;5046548;28;20484;-68
2021/05/10 10:23:22;;;;;;;3.20;1.87;;;24.70;92.20;;;;;;5046013;28;20455;-68
2021/05/10 10:25:49;;;;;;;1.77;1.67;;;24.90;90.70;;;;;;5045428;28;20467;-68
2021/05/10 10:28:18;;;;;;;7.90;2.50;;;25.10;89.10;;;;;;5045943;28;20460;-68
2021/05/10 10:30:51;;;;;;;2.20;1.73;;;25.30;89.30;;;;;;5046056;28;20534;-67
2021/05/10 10:33:29;;;;;;;2.03;1.83;;;25.50;89.40;;;;;;5046172;28;20491;-68
2021/05/10 10:35:58;;;;;;;1.97;1.60;;;25.60;89.20;;;;;;5055970;28;20552;-67
2021/05/10 10:38:29;;;;;;;2.70;1.73;;;25.90;88.10;;;;;;5065613;28;20485;-68
2021/05/10 10:41:21;;;;;;;2.70;1.60;;;26.00;88.50;;;;;;5065603;28;20993;-66
2021/05/10 10:43:49;;;;;;;2.70;1.70;;;26.10;89.20;;;;;;5064353;28;20454;-67
2021/05/10 10:46:23;;;;;;;2.40;2.00;;;25.80;87.60;;;;;;5064080;28;20465;-67
2021/05/10 10:48:51;;;;;;;2.57;1.60;;;25.40;87.30;;;;;;5065447;28;20465;-68
2021/05/10 10:51:19;;;;;;;1.93;1.20;;;25.10;88.10;;;;;;5066265;28;20487;-68
2021/05/10 10:53:47;;;;;;;2.13;1.50;;;24.70;89.30;;;;;;5065466;28;20487;-68
2021/05/10 10:56:15;;;;;;;1.30;1.20;;;24.60;89.50;;;;;;5066047;28;20472;-68
2021/05/10 10:58:43;;;;;;;1.97;1.40;;;24.40;90.10;;;;;;5065646;28;20457;-67
2021/05/10 11:01:18;;;;;;;1.90;1.63;;;24.30;90.00;;;;;;5065969;28;20486;-68
2021/05/10 11:03:46;;;;;;;1.53;1.30;;;24.20;89.80;;;;;;5065920;28;21027;-68
2021/05/10 11:06:12;;;;;;;1.90;1.50;;;23.90;90.30;;;;;;5066002;28;20568;-67
2021/05/10 11:08:53;;;;;;;1.60;1.50;;;23.70;90.30;;;;;;5063495;28;20468;-68
2021/05/10 11:11:39;;;;;;;1.90;1.50;;;23.50;91.10;;;;;;5065895;28;20896;-67
2021/05/10 11:14:05;;;;;;;2.87;1.43;;;23.20;91.20;;;;;;5065187;28;20490;-67
2021/05/10 11:16:53;;;;;;;1.67;1.57;;;23.00;91.10;;;;;;5061316;28;20460;-68
2021/05/10 11:19:35;;;;;;;2.07;1.83;;;22.60;91.40;;;;;;5062544;28;20558;-67
2021/05/10 11:22:03;;;;;;;1.90;1.67;;;22.40;91.40;;;;;;5062858;28;20657;-68
2021/05/10 11:24:34;;;;;;;2.00;1.60;;;22.10;91.70;;;;;;5064664;28;20508;-67
2021/05/10 11:27:03;;;;;;;2.63;1.77;;;22.00;92.00;;;;;;5064974;28;20489;-68
2021/05/10 11:29:52;;;;;;;2.60;1.43;;;21.80;92.00;;;;;;5066943;28;20838;-67
2021/05/10 11:32:31;;;;;;;2.77;1.70;;;21.60;92.70;;;;;;5063517;28;20504;-67
2021/05/10 11:35:12;;;;;;;2.07;1.87;;;21.50;92.50;;;;;;5068706;28;20958;-68
2021/05/10 11:37:38;;;;;;;1.40;1.30;;;21.40;92.70;;;;;;5068649;28;20466;-67
2021/05/10 11:40:07;;;;;;;1.70;1.30;;;21.30;92.20;;;;;;5068164;28;20482;-68
2021/05/10 11:42:33;;;;;;;1.73;1.63;;;21.10;92.20;;;;;;5069101;28;20450;-68
2021/05/10 11:45:00;;;;;;;1.40;1.30;;;21.00;92.30;;;;;;5068511;28;20481;-68
2021/05/10 11:47:27;;;;;;;2.50;1.50;;;21.00;92.40;;;;;;5068591;28;20549;-67
2021/05/10 11:49:53;;;;;;;3.40;1.30;;;20.80;92.20;;;;;;5064025;28;20479;-67
2021/05/10 11:52:21;;;;;;;4.70;1.40;;;20.70;92.20;;;;;;5064737;28;21037;-68
2021/05/10 11:54:48;;;;;;;2.50;1.40;;;20.60;92.60;;;;;;5064966;28;21494;-68
2021/05/10 11:57:20;;;;;;;1.80;1.20;;;20.60;92.70;;;;;;5057239;28;20461;-67
2021/05/10 11:59:46;;;;;;;4.80;1.60;;;20.60;92.60;;;;;;5064584;28;21008;-68
2021/05/10 12:02:17;;;;;;;4.10;1.40;;;20.60;92.90;;;;;;5064635;28;20460;-68
2021/05/10 12:04:47;;;;;;;1.60;1.43;;;20.50;92.60;;;;;;5063728;28;20494;-67
2021/05/10 12:07:13;;;;;;;2.23;1.30;;;20.40;92.50;;;;;;5064231;28;20461;-67
2021/05/10 12:09:46;;;;;;;2.50;1.40;;;20.30;92.80;;;;;;5063133;28;20486;-67
2021/05/10 12:12:31;;;;;;;1.80;1.10;;;20.30;92.80;;;;;;5063511;28;20459;-66
2021/05/10 12:15:02;;;;;;;1.80;1.37;;;20.30;92.90;;;;;;5059037;28;20482;-67
2021/05/10 12:17:29;;;;;;;1.90;1.47;;;20.20;92.80;;;;;;5062682;28;20545;-68
2021/05/10 12:20:04;;;;;;;1.70;1.27;;;20.20;92.80;;;;;;5064592;28;20478;-66
2021/05/10 12:22:32;;;;;;;2.70;1.63;;;20.10;93.00;;;;;;5065807;28;20462;-67
2021/05/10 12:25:11;;;;;;;1.50;1.30;;;20.20;92.90;;;;;;5065488;28;20454;-68
2021/05/10 12:27:47;;;;;;;1.30;1.20;;;20.10;93.00;;;;;;5068004;28;20949;-66
2021/05/10 12:30:28;;;;;;;2.13;1.30;;;20.10;93.20;;;;;;5067405;28;20934;-67
2021/05/10 12:32:56;;;;;;;2.03;1.20;;;20.10;93.20;;;;;;5068326;28;20508;-68
2021/05/10 12:35:25;;;;;;;1.80;1.17;;;20.00;93.40;;;;;;5068641;28;20462;-68
2021/05/10 12:37:53;;;;;;;2.80;1.37;;;20.00;93.30;;;;;;5069548;28;20455;-68
2021/05/10 12:53:13;;;;;;;2.17;1.33;;;20.00;94.10;;;;;;5052439;28;20476;-92
2021/05/10 12:55:43;;;;;;;1.80;1.20;;;19.90;94.90;;;;;;5056555;28;20455;-91
2021/05/10 12:58:20;;;;;;;2.10;1.10;;;20.00;94.20;;;;;;5055959;28;20448;-92
2021/05/10 13:00:47;;;;;;;1.93;1.40;;;20.10;94.30;;;;;;5057324;28;20578;-91
2021/05/10 13:03:30;;;;;;;3.03;1.10;;;20.20;93.80;;;;;;5057766;28;20455;-92
2021/05/10 13:05:57;;;;;;;1.60;1.10;;;20.10;93.50;;;;;;5055938;28;20529;-91
2021/05/10 13:08:39;;;;;;;1.20;1.10;;;20.00;93.40;;;;;;5057398;28;20464;-93